createdAt,value
2019-06-07T00:07:17.650Z,12.8
2019-06-07T00:37:14.156Z,12.7
2019-06-07T01:07:07.744Z,12.7
2019-06-07T01:37:09.328Z,12.7
2019-06-07T02:07:09.768Z,12.7
2019-06-07T02:37:10.515Z,12.7
2019-06-07T03:07:12.162Z,12.7
2019-06-07T03:37:14.131Z,12.7
2019-06-07T04:07:12.538Z,12.7
2019-06-07T04:37:14.612Z,12.7
2019-06-07T05:07:15.761Z,12.7
2019-06-07T05:37:20.017Z,12.7
2019-06-07T06:07:20.527Z,12.7
2019-06-07T06:37:21.307Z,12.7
2019-06-07T07:07:22.357Z,12.8
2019-06-07T07:37:23.530Z,12.8
2019-06-07T08:07:24.757Z,12.8
2019-06-07T08:38:17.904Z,12.9
2019-06-07T09:07:25.860Z,12.9
2019-06-07T09:38:28.245Z,12.9
2019-06-07T10:07:36.022Z,13
2019-06-07T10:37:30.161Z,13.1
2019-06-07T11:07:28.928Z,13.3
2019-06-07T11:37:30.046Z,13.6
2019-06-07T12:07:32.967Z,13.6
2019-06-07T12:37:46.859Z,13.6
2019-06-07T13:37:35.343Z,13.7
2019-06-07T14:07:36.211Z,13.7
2019-06-07T14:37:37.359Z,13.6
2019-06-07T15:07:43.555Z,13.6
2019-06-07T15:37:41.244Z,13.6
2019-06-07T16:07:42.503Z,13.6
2019-06-07T16:37:52.065Z,13.6
2019-06-07T17:07:46.797Z,13.5
2019-06-07T17:37:51.965Z,13.4
2019-06-07T18:07:45.714Z,13.3
2019-06-07T18:37:46.886Z,13.2
2019-06-07T19:07:56.742Z,13.2
2019-06-07T19:37:48.222Z,13.1
2019-06-07T20:07:49.301Z,13
2019-06-07T20:37:49.656Z,13
2019-06-07T21:01:56.035Z,12.8
2019-06-07T21:06:14.714Z,12.8
2019-06-07T21:36:15.546Z,12.8
2019-06-07T22:06:15.081Z,12.8
2019-06-07T22:36:16.869Z,12.8
2019-06-07T23:06:18.933Z,12.8
2019-06-07T23:36:17.578Z,12.8
